Time;durP1;ratioP1;P1;durP2;ratioP2;P2;SDS_P1;SDS_P2;PMS_P1;PMS_P2;Temp;Humidity;BMP_temperature;BMP_pressure;BME280_temperature;BME280_humidity;BME280_pressure;Samples;Min_cycle;Max_cycle;Signal;HPM_P1;HPM_P2
2023/07/15 00:00:47;;;;;;;21.42;20.13;;;17.10;79.70;;;;;;5101018;28;20027;-70
2023/07/15 00:03:14;;;;;;;21.27;19.83;;;17.10;80.00;;;;;;5106997;28;20093;-70
2023/07/15 00:05:40;;;;;;;21.88;20.38;;;17.10;79.50;;;;;;5099963;28;20094;-70
2023/07/15 00:08:06;;;;;;;21.42;19.98;;;17.20;78.90;;;;;;5086769;28;20479;-70
2023/07/15 00:10:34;;;;;;;22.13;20.48;;;17.20;78.90;;;;;;5104219;28;20040;-70
2023/07/15 00:13:00;;;;;;;22.02;20.52;;;17.20;78.50;;;;;;5085639;28;20028;-70
2023/07/15 00:15:26;;;;;;;21.77;20.38;;;17.10;79.20;;;;;;5104003;28;20039;-70
2023/07/15 00:17:52;;;;;;;20.95;19.67;;;17.10;78.90;;;;;;5104282;28;20060;-70
2023/07/15 00:20:19;;;;;;;20.67;19.23;;;17.20;79.40;;;;;;5107321;28;20117;-70
2023/07/15 00:22:45;;;;;;;23.33;21.60;;;17.20;79.10;;;;;;5103014;28;20036;-70
2023/07/15 00:25:19;;;;;;;20.77;19.38;;;17.30;78.70;;;;;;5105858;28;20081;-70
2023/07/15 00:27:46;;;;;;;21.48;19.98;;;17.40;77.90;;;;;;5102966;28;20058;-70
2023/07/15 00:30:14;;;;;;;20.23;19.05;;;17.40;77.50;;;;;;5106119;28;20031;-70
2023/07/15 00:32:47;;;;;;;20.58;19.23;;;17.50;77.40;;;;;;5104076;28;20035;-70
2023/07/15 00:35:22;;;;;;;20.85;19.55;;;17.60;77.30;;;;;;5103408;28;20039;-70
2023/07/15 00:37:48;;;;;;;20.80;19.15;;;17.60;76.80;;;;;;5101284;28;20051;-70
2023/07/15 00:40:15;;;;;;;20.58;19.27;;;17.60;77.00;;;;;;5098997;28;20023;-70
2023/07/15 00:42:53;;;;;;;21.80;20.40;;;17.60;77.40;;;;;;5098858;28;20497;-70
2023/07/15 00:45:18;;;;;;;19.20;18.00;;;17.50;77.50;;;;;;5101760;28;20039;-70
2023/07/15 00:48:13;;;;;;;22.52;20.92;;;17.40;77.60;;;;;;5104441;28;20036;-70
2023/07/15 00:50:42;;;;;;;19.65;18.17;;;17.50;77.70;;;;;;5106696;27;20035;-70
2023/07/15 00:53:10;;;;;;;20.80;19.25;;;17.50;77.50;;;;;;5104949;28;20042;-70
2023/07/15 00:55:37;;;;;;;22.10;20.73;;;17.60;77.40;;;;;;5105636;28;20024;-70
2023/07/15 00:58:03;;;;;;;21.83;20.33;;;17.50;78.10;;;;;;5090690;28;20036;-71
2023/07/15 01:00:30;;;;;;;22.08;20.73;;;17.60;77.70;;;;;;5105885;28;20098;-70
2023/07/15 01:02:56;;;;;;;20.45;19.15;;;17.60;78.20;;;;;;5108010;28;20035;-71
2023/07/15 01:05:21;;;;;;;19.70;18.33;;;17.50;77.90;;;;;;5107936;27;20132;-70
2023/07/15 01:07:47;;;;;;;21.13;19.73;;;17.60;77.60;;;;;;5107343;28;20031;-70
2023/07/15 01:10:13;;;;;;;21.85;20.55;;;17.70;77.10;;;;;;5105390;28;20040;-70
2023/07/15 01:12:39;;;;;;;20.77;19.58;;;17.70;77.40;;;;;;5108754;28;20489;-70
2023/07/15 01:15:06;;;;;;;20.90;19.60;;;17.70;77.40;;;;;;5106601;28;20036;-70
2023/07/15 01:17:32;;;;;;;20.77;19.17;;;17.70;77.70;;;;;;5107603;28;20026;-70
2023/07/15 01:19:58;;;;;;;22.05;20.38;;;17.70;77.40;;;;;;5104317;28;20032;-70
2023/07/15 01:22:24;;;;;;;21.05;19.52;;;17.70;77.30;;;;;;5102282;27;20519;-70
2023/07/15 01:24:50;;;;;;;21.23;19.92;;;17.60;77.50;;;;;;5092542;28;20035;-70
2023/07/15 01:27:15;;;;;;;21.98;20.38;;;17.60;77.70;;;;;;5104597;28;20504;-70
2023/07/15 01:29:43;;;;;;;20.02;18.63;;;17.60;77.60;;;;;;5105640;28;20031;-71
2023/07/15 01:32:09;;;;;;;20.70;19.40;;;17.60;77.90;;;;;;5105805;28;20435;-70
2023/07/15 01:34:36;;;;;;;21.70;20.30;;;17.70;77.60;;;;;;5104937;28;20036;-71
2023/07/15 01:37:03;;;;;;;21.50;19.88;;;17.70;77.70;;;;;;5086869;28;20395;-70
2023/07/15 01:39:29;;;;;;;21.15;19.75;;;17.60;78.00;;;;;;5109233;28;20056;-70
2023/07/15 01:41:55;;;;;;;21.83;20.52;;;17.50;78.00;;;;;;5104155;28;20533;-70
2023/07/15 01:44:23;;;;;;;21.85;20.15;;;17.50;78.30;;;;;;5107953;28;20056;-70
2023/07/15 01:46:49;;;;;;;23.33;21.52;;;17.40;78.70;;;;;;5107002;28;20055;-70
2023/07/15 01:49:15;;;;;;;20.63;19.42;;;17.40;79.30;;;;;;5109591;28;20028;-70
2023/07/15 01:51:40;;;;;;;22.23;20.65;;;17.40;79.10;;;;;;5108421;28;20020;-70
2023/07/15 01:54:06;;;;;;;21.00;19.60;;;17.40;79.20;;;;;;5105494;28;20038;-71
2023/07/15 01:56:31;;;;;;;22.20;20.70;;;17.40;79.10;;;;;;5099922;28;20111;-70
2023/07/15 01:58:57;;;;;;;22.25;20.75;;;17.50;78.80;;;;;;5089308;28;20123;-70
2023/07/15 02:01:23;;;;;;;22.23;20.90;;;17.50;78.70;;;;;;5111398;28;20044;-71
2023/07/15 02:03:48;;;;;;;21.95;20.50;;;17.40;79.10;;;;;;5106138;28;20032;-71
2023/07/15 02:06:14;;;;;;;23.08;21.42;;;17.40;79.10;;;;;;5104752;28;20064;-71
2023/07/15 02:08:40;;;;;;;22.33;20.83;;;17.40;79.90;;;;;;5106252;28;20516;-71
2023/07/15 02:11:06;;;;;;;22.67;21.25;;;17.40;78.90;;;;;;5106650;28;20123;-71
2023/07/15 02:13:31;;;;;;;22.90;21.63;;;17.40;78.90;;;;;;5107493;28;20050;-71
2023/07/15 02:15:57;;;;;;;22.73;21.52;;;17.40;79.20;;;;;;5106125;28;20070;-71
2023/07/15 02:18:24;;;;;;;22.40;20.98;;;17.40;78.90;;;;;;5073769;28;20043;-71
2023/07/15 02:20:49;;;;;;;23.92;22.38;;;17.30;79.00;;;;;;5109287;27;20041;-71
2023/07/15 02:23:16;;;;;;;23.35;21.80;;;17.30;79.20;;;;;;5107862;28;20024;-71
2023/07/15 02:25:42;;;;;;;24.73;23.33;;;17.20;79.50;;;;;;5104151;28;20035;-71
2023/07/15 02:28:08;;;;;;;24.02;22.63;;;17.10;80.20;;;;;;5103864;28;20136;-71
2023/07/15 02:30:34;;;;;;;22.15;20.85;;;17.10;80.20;;;;;;5105014;28;20031;-71
2023/07/15 02:33:01;;;;;;;22.90;21.60;;;17.00;80.30;;;;;;5107208;28;20035;-70
2023/07/15 02:35:27;;;;;;;21.70;20.30;;;17.00;80.60;;;;;;5102789;28;20027;-71
2023/07/15 02:37:54;;;;;;;23.75;22.35;;;16.90;80.90;;;;;;5097027;28;20087;-71
2023/07/15 02:40:20;;;;;;;24.60;22.60;;;17.00;81.30;;;;;;5105922;28;20063;-71
2023/07/15 02:42:46;;;;;;;24.08;22.48;;;17.00;80.70;;;;;;5098109;28;20070;-71
2023/07/15 02:45:14;;;;;;;23.98;22.58;;;17.00;81.00;;;;;;5107689;28;20114;-71
2023/07/15 02:47:39;;;;;;;25.73;23.50;;;16.90;80.80;;;;;;5105765;28;20493;-71
2023/07/15 02:50:09;;;;;;;24.35;22.60;;;16.90;80.90;;;;;;5105071;27;20036;-71
2023/07/15 02:52:37;;;;;;;24.17;22.57;;;16.80;81.70;;;;;;5100926;28;20580;-71
2023/07/15 02:55:07;;;;;;;24.48;23.08;;;16.80;81.40;;;;;;5106915;28;20036;-71
2023/07/15 02:57:33;;;;;;;23.80;22.33;;;16.80;81.40;;;;;;5105468;28;20019;-71
2023/07/15 02:59:59;;;;;;;25.48;23.88;;;16.70;81.40;;;;;;5104865;28;20036;-71
2023/07/15 03:02:25;;;;;;;23.48;21.98;;;16.70;82.20;;;;;;5107878;27;20140;-71
2023/07/15 03:04:51;;;;;;;24.05;22.45;;;16.80;82.90;;;;;;5107430;27;20036;-71
2023/07/15 03:07:17;;;;;;;24.73;23.08;;;16.70;81.90;;;;;;5108251;28;20024;-71
2023/07/15 03:09:44;;;;;;;22.60;21.25;;;16.70;82.30;;;;;;5106489;28;20525;-71
2023/07/15 03:12:10;;;;;;;24.45;22.83;;;16.60;82.10;;;;;;5104473;28;20127;-71
2023/07/15 03:14:36;;;;;;;24.40;22.98;;;16.60;82.50;;;;;;5105085;28;20047;-71
2023/07/15 03:17:03;;;;;;;23.65;21.90;;;16.50;82.80;;;;;;5104881;28;20032;-71
2023/07/15 03:19:31;;;;;;;24.40;22.67;;;16.50;82.50;;;;;;5106007;27;20037;-71
2023/07/15 03:21:57;;;;;;;23.83;22.30;;;16.50;82.70;;;;;;5101355;28;20469;-71
2023/07/15 03:24:25;;;;;;;24.05;22.63;;;16.40;83.10;;;;;;5108547;28;20062;-70
2023/07/15 03:26:52;;;;;;;24.02;22.40;;;16.50;83.10;;;;;;5105610;28;20043;-72
2023/07/15 03:29:17;;;;;;;23.55;21.85;;;16.40;83.20;;;;;;5104105;28;20084;-72
2023/07/15 03:31:43;;;;;;;24.33;22.63;;;16.40;83.10;;;;;;5104020;28;20110;-72
2023/07/15 03:34:09;;;;;;;23.08;21.48;;;16.30;83.60;;;;;;5088430;28;20038;-72
2023/07/15 03:36:35;;;;;;;24.33;22.60;;;16.40;83.90;;;;;;5104016;28;20043;-71
2023/07/15 03:39:00;;;;;;;22.50;21.10;;;16.30;84.10;;;;;;5087400;28;20543;-72
2023/07/15 03:41:26;;;;;;;23.60;21.65;;;16.30;84.20;;;;;;5106831;28;20035;-72
2023/07/15 03:43:52;;;;;;;23.27;21.75;;;16.30;84.30;;;;;;5105301;28;20093;-72
2023/07/15 03:46:17;;;;;;;22.65;21.27;;;16.20;84.10;;;;;;5090782;28;20024;-72
2023/07/15 03:48:43;;;;;;;22.95;21.55;;;16.10;83.90;;;;;;5107192;28;20040;-72
2023/07/15 03:51:09;;;;;;;22.65;21.30;;;16.20;84.50;;;;;;5106101;28;20038;-72
2023/07/15 03:53:35;;;;;;;23.67;22.13;;;16.20;84.40;;;;;;5105892;28;20027;-73
2023/07/15 03:56:01;;;;;;;23.85;22.35;;;16.20;84.40;;;;;;5107020;28;20497;-72
2023/07/15 03:58:27;;;;;;;23.38;21.95;;;16.20;84.50;;;;;;5105358;28;20024;-72
2023/07/15 04:00:52;;;;;;;23.25;21.80;;;16.20;84.90;;;;;;5102705;28;20473;-72
2023/07/15 04:03:18;;;;;;;23.05;21.75;;;16.30;84.30;;;;;;5105120;28;20093;-72
2023/07/15 04:05:44;;;;;;;23.77;22.27;;;16.40;84.40;;;;;;5106313;28;20444;-71
2023/07/15 04:08:10;;;;;;;23.42;22.02;;;16.30;84.10;;;;;;5087183;28;20031;-72
2023/07/15 04:10:36;;;;;;;24.55;22.33;;;16.50;83.70;;;;;;5085945;28;20035;-72
2023/07/15 04:13:02;;;;;;;22.90;21.23;;;16.60;83.20;;;;;;5105897;28;20019;-72
2023/07/15 04:15:30;;;;;;;22.75;21.42;;;16.70;83.10;;;;;;5103699;28;20023;-72
2023/07/15 04:17:56;;;;;;;23.10;21.60;;;16.80;82.50;;;;;;5103148;28;20519;-72
2023/07/15 04:20:21;;;;;;;22.65;21.15;;;16.80;82.50;;;;;;5103084;28;20035;-72
2023/07/15 04:22:47;;;;;;;23.55;21.85;;;16.80;82.30;;;;;;5102390;28;20074;-72
2023/07/15 04:25:14;;;;;;;21.20;19.90;;;16.90;81.80;;;;;;5107584;28;20509;-71
2023/07/15 04:27:40;;;;;;;22.65;21.25;;;17.10;81.60;;;;;;5108620;28;20031;-70
2023/07/15 04:30:08;;;;;;;24.38;22.83;;;17.00;81.70;;;;;;5109919;28;20045;-71
2023/07/15 04:32:34;;;;;;;21.63;20.30;;;17.10;82.10;;;;;;5111694;27;20088;-71
2023/07/15 04:35:01;;;;;;;24.08;22.50;;;17.20;81.30;;;;;;5110480;28;20024;-72
2023/07/15 04:37:27;;;;;;;21.77;20.27;;;17.20;81.50;;;;;;5101585;28;20505;-71
2023/07/15 04:39:53;;;;;;;19.90;18.35;;;17.30;80.70;;;;;;5108215;28;20043;-71
2023/07/15 04:42:18;;;;;;;20.70;19.50;;;17.50;79.90;;;;;;5088575;28;20490;-71
2023/07/15 04:44:44;;;;;;;21.25;19.75;;;17.60;80.00;;;;;;5108459;28;20031;-71
2023/07/15 04:47:10;;;;;;;20.50;18.73;;;17.70;79.80;;;;;;5111019;28;20520;-71
2023/07/15 04:49:36;;;;;;;20.58;19.00;;;17.80;79.60;;;;;;5107452;28;20392;-72
2023/07/15 04:52:01;;;;;;;19.80;18.17;;;17.80;79.40;;;;;;5109024;28;20027;-71
2023/07/15 04:54:27;;;;;;;19.58;18.25;;;17.90;79.10;;;;;;5107332;28;20024;-71
2023/07/15 04:56:53;;;;;;;20.50;19.20;;;17.90;78.70;;;;;;5108385;28;20052;-71
2023/07/15 04:59:19;;;;;;;18.27;16.60;;;18.10;78.60;;;;;;5105667;28;20131;-71
2023/07/15 05:01:44;;;;;;;18.50;16.95;;;18.10;77.90;;;;;;5105307;27;20042;-72
2023/07/15 05:04:10;;;;;;;16.63;15.52;;;18.20;77.40;;;;;;5090144;28;20533;-71
2023/07/15 05:06:37;;;;;;;17.35;16.23;;;18.20;76.30;;;;;;5106991;28;20062;-71
2023/07/15 05:09:04;;;;;;;17.65;16.17;;;18.30;76.90;;;;;;5106509;28;20039;-72
2023/07/15 05:11:30;;;;;;;18.13;16.83;;;18.40;77.00;;;;;;5108574;28;20119;-71
2023/07/15 05:13:56;;;;;;;18.90;17.50;;;18.50;76.20;;;;;;5107277;27;20131;-71
2023/07/15 05:16:22;;;;;;;18.27;16.88;;;18.60;77.60;;;;;;5076102;28;20032;-71
2023/07/15 05:18:48;;;;;;;19.02;17.80;;;18.70;76.20;;;;;;5089544;28;20027;-72
2023/07/15 05:21:14;;;;;;;17.50;16.30;;;18.80;76.40;;;;;;5105676;28;20130;-72
2023/07/15 05:23:40;;;;;;;17.48;16.42;;;18.90;75.80;;;;;;5104497;28;20086;-71
2023/07/15 05:26:05;;;;;;;17.83;16.52;;;19.00;74.70;;;;;;5109891;28;20423;-71
2023/07/15 05:28:32;;;;;;;17.52;16.33;;;19.10;74.10;;;;;;5108720;27;20051;-71
2023/07/15 05:31:00;;;;;;;17.52;16.13;;;19.30;74.00;;;;;;5105177;28;20079;-71
2023/07/15 05:33:26;;;;;;;16.60;15.40;;;19.40;73.20;;;;;;5109485;27;20127;-72
2023/07/15 05:35:52;;;;;;;17.27;15.93;;;19.50;73.50;;;;;;5108455;28;20040;-72
2023/07/15 05:38:22;;;;;;;16.35;15.18;;;19.60;73.10;;;;;;5107467;28;20079;-71
2023/07/15 05:40:47;;;;;;;16.50;15.50;;;19.70;73.10;;;;;;5089897;28;20032;-71
2023/07/15 05:43:13;;;;;;;16.80;15.68;;;19.90;71.90;;;;;;5110383;28;20502;-72
2023/07/15 05:45:39;;;;;;;16.08;14.73;;;20.00;70.80;;;;;;5107925;27;20027;-72
2023/07/15 05:48:05;;;;;;;16.67;15.63;;;20.20;70.20;;;;;;5103666;27;20032;-72
2023/07/15 05:50:34;;;;;;;16.45;15.25;;;20.10;70.60;;;;;;5108866;27;20036;-71
2023/07/15 05:53:00;;;;;;;16.10;15.10;;;20.20;68.70;;;;;;5106395;27;20032;-71
2023/07/15 05:55:26;;;;;;;17.02;15.93;;;20.40;70.00;;;;;;5110751;27;20024;-72
2023/07/15 05:57:52;;;;;;;17.95;16.75;;;20.50;71.60;;;;;;5109555;27;20096;-71
2023/07/15 06:00:17;;;;;;;17.80;16.52;;;20.60;70.00;;;;;;5105951;28;20043;-72
2023/07/15 06:02:43;;;;;;;17.55;16.35;;;20.70;71.00;;;;;;5108199;27;20036;-72
2023/07/15 06:05:09;;;;;;;17.60;16.40;;;20.60;71.80;;;;;;5088994;28;20119;-72
2023/07/15 06:07:35;;;;;;;19.67;18.45;;;20.80;72.60;;;;;;5106684;28;20042;-72
2023/07/15 06:10:02;;;;;;;17.52;16.17;;;20.80;73.10;;;;;;5106565;28;20027;-71
2023/07/15 06:12:27;;;;;;;16.70;15.50;;;20.90;70.40;;;;;;5108631;28;20110;-72
2023/07/15 06:14:53;;;;;;;16.52;15.32;;;21.10;68.40;;;;;;5107364;27;20610;-72
2023/07/15 06:17:20;;;;;;;15.95;14.85;;;21.20;66.80;;;;;;5106453;28;20432;-72
2023/07/15 06:19:46;;;;;;;16.30;15.25;;;21.30;67.00;;;;;;5108326;28;20405;-72
2023/07/15 06:22:11;;;;;;;16.25;15.05;;;21.40;67.40;;;;;;5084151;27;20042;-72
2023/07/15 06:24:37;;;;;;;16.00;14.80;;;21.50;66.40;;;;;;5105221;28;20146;-72
2023/07/15 06:27:03;;;;;;;17.55;16.42;;;21.70;65.60;;;;;;5105721;28;20035;-75
2023/07/15 06:29:29;;;;;;;17.70;16.42;;;21.80;65.80;;;;;;5103368;27;20478;-72
2023/07/15 06:31:54;;;;;;;15.25;13.85;;;22.00;64.90;;;;;;5103429;27;20119;-72
2023/07/15 06:34:20;;;;;;;13.88;12.98;;;22.20;62.10;;;;;;5108746;28;20370;-73
2023/07/15 06:36:46;;;;;;;14.95;13.70;;;22.40;61.40;;;;;;5104711;28;20825;-70
2023/07/15 06:39:12;;;;;;;15.02;13.95;;;22.50;61.30;;;;;;5105064;28;20043;-72
2023/07/15 06:41:38;;;;;;;14.68;13.55;;;22.60;60.50;;;;;;5101405;28;20063;-72
2023/07/15 06:44:03;;;;;;;14.23;13.32;;;22.80;59.20;;;;;;5088950;28;20112;-72
2023/07/15 06:46:29;;;;;;;13.57;12.63;;;23.10;59.90;;;;;;5106513;28;20051;-72
2023/07/15 06:48:55;;;;;;;14.68;13.55;;;23.20;57.80;;;;;;5106012;27;20035;-72
2023/07/15 06:51:22;;;;;;;13.65;12.63;;;23.40;56.80;;;;;;5089706;28;20085;-73
2023/07/15 06:53:48;;;;;;;14.15;13.20;;;23.50;54.40;;;;;;5104986;28;20063;-73
2023/07/15 06:56:14;;;;;;;14.73;13.75;;;23.70;55.40;;;;;;5103198;28;20104;-73
2023/07/15 06:58:40;;;;;;;13.85;13.02;;;23.90;52.70;;;;;;5103221;28;20074;-72
2023/07/15 07:01:06;;;;;;;13.80;12.85;;;24.10;55.60;;;;;;5105658;28;20031;-73
2023/07/15 07:03:33;;;;;;;13.75;12.85;;;24.20;55.30;;;;;;5105298;27;20050;-72
2023/07/15 07:05:59;;;;;;;14.70;13.48;;;24.30;55.00;;;;;;5108183;27;20813;-72
2023/07/15 07:08:24;;;;;;;14.05;13.15;;;24.50;54.80;;;;;;5105166;28;20031;-72
2023/07/15 07:10:51;;;;;;;15.20;14.18;;;24.60;51.90;;;;;;5103661;28;20040;-72
2023/07/15 07:13:18;;;;;;;14.70;13.80;;;24.70;50.00;;;;;;5100473;28;20023;-72
2023/07/15 07:15:43;;;;;;;15.13;13.88;;;24.80;48.50;;;;;;5100766;28;20393;-71
2023/07/15 07:18:09;;;;;;;14.50;13.55;;;25.00;50.80;;;;;;5083608;28;20031;-72
2023/07/15 07:20:35;;;;;;;15.32;14.20;;;25.10;50.40;;;;;;5087249;28;20039;-71
2023/07/15 07:23:01;;;;;;;14.70;13.70;;;25.30;48.10;;;;;;5101671;28;20070;-72
2023/07/15 07:25:26;;;;;;;15.65;14.60;;;25.30;48.10;;;;;;5102288;28;20039;-72
2023/07/15 07:27:52;;;;;;;15.15;14.25;;;25.60;47.80;;;;;;5101631;28;20167;-72
2023/07/15 07:30:18;;;;;;;15.30;14.13;;;25.70;48.40;;;;;;5082735;28;20055;-72
2023/07/15 07:32:43;;;;;;;14.63;13.68;;;25.70;46.40;;;;;;5103743;28;20035;-71
2023/07/15 07:35:09;;;;;;;15.98;14.98;;;25.90;46.90;;;;;;5068495;28;20073;-72
2023/07/15 07:37:35;;;;;;;15.95;14.95;;;26.10;46.00;;;;;;5106494;27;20472;-71
2023/07/15 07:40:01;;;;;;;16.88;15.80;;;26.10;45.90;;;;;;5084576;28;20027;-72
2023/07/15 07:42:27;;;;;;;15.68;14.85;;;26.20;45.40;;;;;;5088509;28;20105;-72
2023/07/15 07:44:54;;;;;;;16.17;15.18;;;26.40;48.00;;;;;;5102616;28;20043;-72
2023/07/15 07:47:20;;;;;;;28.33;26.83;;;26.30;43.70;;;;;;5087067;28;20042;-72
2023/07/15 07:49:45;;;;;;;17.33;16.33;;;26.50;42.80;;;;;;5100681;28;20061;-72
2023/07/15 07:52:11;;;;;;;17.13;16.02;;;26.70;46.70;;;;;;5102732;28;20060;-72
2023/07/15 07:54:37;;;;;;;30.35;28.95;;;26.80;42.90;;;;;;5102168;28;20150;-72
2023/07/15 07:57:03;;;;;;;16.83;15.77;;;27.00;42.10;;;;;;5101426;28;20027;-72
2023/07/15 07:59:29;;;;;;;18.55;17.52;;;27.10;45.10;;;;;;5099440;28;20131;-72
2023/07/15 08:01:54;;;;;;;30.65;29.02;;;27.20;42.20;;;;;;5104507;28;20035;-74
2023/07/15 08:04:20;;;;;;;26.27;24.92;;;27.30;41.80;;;;;;5103338;28;20039;-74
2023/07/15 08:06:45;;;;;;;54.53;52.28;;;27.40;42.00;;;;;;5088720;28;20109;-72
2023/07/15 08:09:11;;;;;;;42.58;40.72;;;27.50;39.90;;;;;;5102780;28;20122;-73
2023/07/15 08:11:38;;;;;;;29.95;28.35;;;27.70;40.20;;;;;;5101045;28;20402;-75
2023/07/15 08:14:03;;;;;;;31.63;30.15;;;27.70;42.90;;;;;;5083163;28;20942;-75
2023/07/15 08:16:29;;;;;;;40.15;38.22;;;27.90;41.50;;;;;;5104749;28;20107;-76
2023/07/15 08:18:56;;;;;;;59.50;57.00;;;28.00;41.30;;;;;;5105711;28;20036;-73
2023/07/15 08:21:21;;;;;;;25.48;24.08;;;28.20;38.60;;;;;;5086486;28;20115;-73
2023/07/15 08:23:47;;;;;;;56.95;54.72;;;28.20;43.00;;;;;;5102954;28;20114;-73
2023/07/15 08:26:14;;;;;;;64.95;62.35;;;28.30;38.10;;;;;;5086903;28;20036;-73
2023/07/15 08:28:40;;;;;;;35.78;34.00;;;28.60;40.50;;;;;;5100416;28;20035;-73
2023/07/15 08:31:06;;;;;;;63.22;60.72;;;28.60;42.70;;;;;;5099438;28;20032;-73
2023/07/15 08:33:32;;;;;;;46.75;44.75;;;28.60;38.30;;;;;;5082763;28;20509;-73
2023/07/15 08:35:58;;;;;;;122.63;118.13;;;28.80;37.10;;;;;;5103865;28;20046;-73
2023/07/15 08:38:23;;;;;;;69.63;66.90;;;28.90;36.40;;;;;;5104227;28;20051;-72
2023/07/15 08:40:51;;;;;;;132.43;127.38;;;28.90;40.30;;;;;;5091746;28;20082;-73
2023/07/15 08:43:18;;;;;;;135.45;130.45;;;29.00;37.70;;;;;;5104002;28;20520;-73
2023/07/15 08:45:46;;;;;;;108.18;103.88;;;29.10;36.00;;;;;;5088641;28;20035;-73
2023/07/15 08:48:12;;;;;;;124.50;119.90;;;29.10;38.40;;;;;;5104421;28;20047;-74
2023/07/15 08:50:39;;;;;;;114.55;110.20;;;29.40;35.10;;;;;;5107450;28;20028;-73
2023/07/15 08:53:04;;;;;;;104.18;100.40;;;29.40;35.50;;;;;;5106629;28;20501;-73
2023/07/15 08:55:31;;;;;;;63.55;61.10;;;29.50;35.30;;;;;;5109538;28;20063;-73
2023/07/15 08:57:58;;;;;;;100.82;96.90;;;29.70;35.30;;;;;;5104694;28;20023;-74
2023/07/15 09:00:24;;;;;;;155.40;149.68;;;29.60;33.40;;;;;;5101581;28;20038;-73
2023/07/15 09:02:53;;;;;;;106.47;102.50;;;29.50;34.10;;;;;;5104573;28;20043;-73
2023/07/15 09:05:19;;;;;;;102.75;99.05;;;29.70;33.50;;;;;;5086454;28;20035;-73
2023/07/15 09:07:56;;;;;;;58.97;56.58;;;29.90;32.30;;;;;;5104441;28;20051;-73
2023/07/15 09:10:22;;;;;;;98.93;95.07;;;30.20;37.50;;;;;;5107123;28;20039;-73
2023/07/15 09:12:53;;;;;;;107.32;103.43;;;30.30;33.30;;;;;;5106667;28;20386;-74
2023/07/15 09:15:19;;;;;;;170.80;164.68;;;30.10;31.80;;;;;;5093006;28;20027;-73
2023/07/15 09:17:55;;;;;;;355.38;341.73;;;30.10;32.60;;;;;;5108020;28;20036;-73
2023/07/15 09:20:23;;;;;;;133.02;127.80;;;30.30;29.90;;;;;;5109582;28;20039;-70
2023/07/15 09:22:59;;;;;;;215.40;207.80;;;30.70;36.20;;;;;;5109859;28;20024;-74
2023/07/15 09:25:26;;;;;;;182.60;175.90;;;30.70;33.60;;;;;;5111307;28;20031;-74
2023/07/15 09:27:53;;;;;;;367.45;353.17;;;31.10;32.20;;;;;;5108911;28;20054;-74
2023/07/15 09:30:19;;;;;;;363.80;350.05;;;31.10;31.30;;;;;;5107534;28;20035;-74
2023/07/15 09:32:46;;;;;;;201.85;194.73;;;31.10;29.30;;;;;;5108300;27;20085;-73
2023/07/15 09:35:13;;;;;;;364.75;350.95;;;31.30;31.10;;;;;;5109385;28;20020;-73
2023/07/15 09:37:39;;;;;;;382.23;367.58;;;31.30;28.50;;;;;;5111222;27;20040;-78
2023/07/15 09:40:08;;;;;;;423.00;406.00;;;31.40;30.90;;;;;;5075281;28;20032;-72
2023/07/15 09:42:55;;;;;;;313.77;302.40;;;31.70;27.00;;;;;;5103959;28;20031;-74
2023/07/15 09:45:35;;;;;;;350.17;337.13;;;32.00;29.50;;;;;;5090352;28;20039;-77
2023/07/15 09:48:06;;;;;;;369.38;355.40;;;31.80;29.70;;;;;;5089123;28;20084;-77
2023/07/15 09:50:33;;;;;;;335.58;323.40;;;32.00;30.60;;;;;;5109634;28;20473;-77
2023/07/15 09:53:00;;;;;;;583.50;556.67;;;32.20;29.10;;;;;;5087945;28;20082;-76
2023/07/15 09:55:27;;;;;;;380.92;366.23;;;31.70;28.60;;;;;;5108150;28;20026;-77
2023/07/15 09:58:17;;;;;;;393.52;378.13;;;31.80;30.50;;;;;;5104411;28;20024;-77
2023/07/15 10:00:47;;;;;;;428.20;410.88;;;32.40;29.70;;;;;;5107596;28;20019;-77
2023/07/15 10:03:26;;;;;;;400.30;384.42;;;32.70;31.50;;;;;;5108784;28;20039;-77
2023/07/15 10:05:52;;;;;;;539.00;516.00;;;32.50;27.00;;;;;;5107054;28;20088;-77
2023/07/15 10:08:18;;;;;;;571.88;546.03;;;32.60;27.70;;;;;;5106602;27;20036;-78
2023/07/15 10:10:45;;;;;;;332.60;320.35;;;32.70;28.90;;;;;;5089924;28;20055;-77
2023/07/15 10:13:12;;;;;;;334.67;322.02;;;32.60;29.40;;;;;;5108695;28;20077;-77
2023/07/15 10:15:39;;;;;;;376.95;362.40;;;32.70;29.00;;;;;;5104177;28;20032;-77
2023/07/15 10:18:13;;;;;;;553.13;529.30;;;32.90;31.40;;;;;;5110092;28;20024;-77
2023/07/15 10:21:01;;;;;;;527.55;501.92;;;32.90;29.00;;;;;;5107120;28;20452;-77
2023/07/15 10:23:31;;;;;;;1999.90;999.90;;;32.70;27.80;;;;;;5088679;28;20028;-78
2023/07/15 10:26:08;;;;;;;244.93;233.50;;;32.80;26.40;;;;;;5103709;28;20034;-79
2023/07/15 10:28:39;;;;;;;1999.90;999.90;;;33.00;27.90;;;;;;5087248;28;20097;-77
2023/07/15 10:31:15;;;;;;;1999.90;999.90;;;33.00;26.50;;;;;;5106289;28;20039;-77
2023/07/15 10:34:02;;;;;;;325.25;309.35;;;32.90;28.30;;;;;;5104001;28;20028;-77
2023/07/15 10:36:42;;;;;;;1999.90;999.90;;;33.30;29.30;;;;;;5106159;28;20048;-78
2023/07/15 10:39:16;;;;;;;1999.90;999.90;;;33.60;25.80;;;;;;5090913;28;20037;-74
2023/07/15 10:41:50;;;;;;;1999.90;999.90;;;33.50;26.10;;;;;;5109259;28;20070;-74
2023/07/15 10:44:24;;;;;;;1999.90;999.90;;;33.70;25.00;;;;;;5104751;28;20460;-74
2023/07/15 10:46:59;;;;;;;1599.00;843.67;;;33.40;23.80;;;;;;5107262;28;20107;-74
2023/07/15 10:49:25;;;;;;;1999.90;999.90;;;33.70;28.40;;;;;;5108982;28;20107;-74
2023/07/15 10:51:54;;;;;;;1999.90;999.90;;;33.50;26.60;;;;;;5088818;28;20115;-74
2023/07/15 10:54:22;;;;;;;1999.90;999.90;;;33.50;26.60;;;;;;5088543;28;20081;-74
2023/07/15 10:56:47;;;;;;;1999.90;999.90;;;33.70;23.90;;;;;;5105838;28;20100;-73
2023/07/15 10:59:13;;;;;;;556.58;529.75;;;33.80;25.70;;;;;;5108440;28;20552;-73
2023/07/15 11:01:39;;;;;;;1999.90;999.90;;;33.90;27.20;;;;;;5109217;28;20392;-74
2023/07/15 11:04:05;;;;;;;1999.90;999.90;;;34.50;23.90;;;;;;5090881;28;20741;-75
2023/07/15 11:06:35;;;;;;;1999.90;999.90;;;34.80;21.80;;;;;;5087001;28;20036;-73
2023/07/15 11:09:18;;;;;;;1999.90;999.90;;;35.30;23.70;;;;;;5107660;28;20043;-74
2023/07/15 11:11:43;;;;;;;1999.90;999.90;;;36.00;21.30;;;;;;5099756;28;20102;-75
2023/07/15 11:14:43;;;;;;;1999.90;999.90;;;35.90;20.80;;;;;;5105285;27;20106;-74
2023/07/15 11:17:12;;;;;;;1999.90;999.90;;;35.70;23.00;;;;;;5090401;28;20039;-74
2023/07/15 11:19:38;;;;;;;1999.90;999.90;;;35.90;21.50;;;;;;5109084;28;20036;-74
2023/07/15 11:22:09;;;;;;;1999.90;999.90;;;36.40;23.10;;;;;;5104530;27;20382;-74
2023/07/15 11:24:35;;;;;;;1999.90;999.90;;;36.60;21.00;;;;;;5105346;28;20055;-74
2023/07/15 11:27:02;;;;;;;1999.90;999.90;;;36.60;21.20;;;;;;5104821;28;20038;-74
2023/07/15 11:29:28;;;;;;;1999.90;999.90;;;36.70;21.30;;;;;;5107302;28;20027;-74
2023/07/15 11:31:56;;;;;;;1999.90;999.90;;;36.10;20.70;;;;;;5106219;28;20411;-74
2023/07/15 11:34:23;;;;;;;1999.90;999.90;;;36.60;24.80;;;;;;5108613;28;20027;-75
2023/07/15 11:36:52;;;;;;;1999.90;999.90;;;37.20;20.60;;;;;;5105256;28;20073;-73
2023/07/15 11:39:18;;;;;;;1999.90;999.90;;;37.30;22.30;;;;;;5103655;28;20070;-75
2023/07/15 11:41:44;;;;;;;1999.90;999.90;;;38.00;19.10;;;;;;5102310;27;20085;-74
2023/07/15 11:44:15;;;;;;;1999.90;999.90;;;37.70;20.90;;;;;;5106513;28;20100;-74
2023/07/15 11:46:43;;;;;;;1999.90;999.90;;;37.90;20.50;;;;;;5111007;27;20419;-74
2023/07/15 11:49:10;;;;;;;1999.90;999.90;;;38.10;23.00;;;;;;5095116;28;20035;-74
2023/07/15 11:51:39;;;;;;;1999.90;999.90;;;37.90;21.20;;;;;;5103165;27;20039;-74
2023/07/15 11:54:10;;;;;;;1999.90;999.90;;;37.60;19.60;;;;;;5111914;27;21506;-74
2023/07/15 11:56:40;;;;;;;1999.90;999.90;;;37.50;20.60;;;;;;5112310;27;21485;-74
2023/07/15 11:59:11;;;;;;;1999.90;999.90;;;38.00;19.50;;;;;;5111119;27;20031;-73
2023/07/15 12:01:40;;;;;;;1999.90;999.90;;;38.30;18.70;;;;;;5107565;28;20028;-73
2023/07/15 12:04:19;;;;;;;1999.90;999.90;;;37.90;19.70;;;;;;5107150;28;20034;-74
2023/07/15 12:06:48;;;;;;;1999.90;999.90;;;38.70;20.20;;;;;;5104857;28;20123;-73
2023/07/15 12:09:17;;;;;;;1999.90;999.90;;;38.60;20.60;;;;;;5107970;28;20043;-73
2023/07/15 12:11:44;;;;;;;;;;;38.40;18.80;;;;;;5108710;28;20051;-73
2023/07/15 12:14:10;;;;;;;1999.90;999.90;;;39.40;18.20;;;;;;5108849;28;19915;-73
2023/07/15 12:16:38;;;;;;;1999.90;999.90;;;38.50;17.90;;;;;;5105227;28;20165;-73
2023/07/15 12:19:05;;;;;;;1999.90;999.90;;;38.80;16.80;;;;;;5089310;28;20853;-73
2023/07/15 12:21:31;;;;;;;1999.90;999.90;;;38.80;17.90;;;;;;5106498;28;20051;-73